Decoded Metar for LFMN (NICE in FRANCE) (IATA:NCE) | Meteo·Mobile Aviation Weather
aviador You're here:

LFMN Decoded Metar

NICE in FRANCE
Report Time2020-02-22 21:30:00
UTC Time2020-02-22 21:55:48
Flight Rules vfr VFR
Wind320° at 08 kt
W.Decomp.*RWY 04: 1.3 kt HW 7.9 kt LCW
Visibility9999 m
Phenomena:N/A
Clouds:N/A
Expected CloudBase > 1,600 ft AGL from Temp-Dew spread
CeilingNone
Temp10°C (ISA -5)
Dew Point06°C (76% RH)
AAT6.2°C
QNH1032 hPa
Density Alt-1,070 ft
Elevation33 ft
Report Wrong Elevation
Raw Report
LFMN 222130Z 32008KT CAVOK 10/06 Q1032 NOSIG=

Extra information for LFMN:More info

Metar Taf Metar & Taf Last 4 Metars F.Rules Stats Wind Profile Meteogram Temp Stats Airport Information Weather charts Add Link Nearby VenuesMetar ALERT Operation Metar Decoded Social comments